Flight Briefing for CPX761

Departure Arrival
Miami International Airport (KMIA)
Click to view FAA NOTAMS
Jorge Chávez International Airport (SPJC)
Click to view FAA NOTAMS
Departure Time Arrival Time
0200 UTC 0800 UTC
Aircraft Distance
B767-300BDSF 2281nm
Departure METAR Arrival METAR
KMIA 212253Z 12012KT 10SM FEW040 FEW060 FEW250 29/20 A2993 RMK AO2 SLP136 T02890200 SPJC 212300Z 17006KT 9999 OVC012 19/16 Q1011 NOSIG RMK PP000
Suggested Route
EONNS2 EONNS A509 URSUS UL780 LIVUD UL780 TRU UV1 ATATU ATATU2


View recent IFR Routes data
Notes



Charts and Procedures

Charts for KMIA
No chart available
Charts for SPJC
No chart available

Windy.com Weather Map